createdAt,value
2022-11-30T00:00:11.550Z,150862.09
2022-11-30T00:02:44.127Z,150855.69
2022-11-30T00:05:14.873Z,150841.53
2022-11-30T00:07:47.859Z,150842.81
2022-11-30T00:10:18.531Z,150846.69
2022-11-30T00:12:48.678Z,150836.41
2022-11-30T00:15:20.675Z,150847.94
2022-11-30T00:17:52.234Z,150849.22
2022-11-30T00:20:25.715Z,150841.53
2022-11-30T00:22:58.923Z,150831.25
2022-11-30T00:25:36.544Z,150831.25
2022-11-30T00:28:07.121Z,150838.94
2022-11-30T00:30:37.907Z,150829.94
2022-11-30T00:33:08.359Z,150828.66
2022-11-30T00:35:39.001Z,150818.38
2022-11-30T00:38:12.142Z,150817.09
2022-11-30T00:40:42.364Z,150818.38
2022-11-30T00:43:13.354Z,150815.78
2022-11-30T00:45:47.378Z,150810.63
2022-11-30T00:48:17.540Z,150855.69
2022-11-30T00:50:47.875Z,150811.94
2022-11-30T00:53:21.290Z,150805.50
2022-11-30T00:55:52.028Z,150802.94
2022-11-30T00:58:22.097Z,150796.53
2022-11-30T01:00:54.442Z,150787.50
2022-11-30T01:03:24.596Z,150792.66
2022-11-30T01:05:54.745Z,150774.63
2022-11-30T01:08:27.737Z,150787.50
2022-11-30T01:10:58.573Z,150806.81
2022-11-30T01:13:28.887Z,150797.81
2022-11-30T01:15:59.448Z,150792.66
2022-11-30T01:18:29.832Z,150806.81
2022-11-30T01:20:59.879Z,150784.91
2022-11-30T01:23:32.530Z,150797.81
2022-11-30T01:26:02.636Z,150804.22
2022-11-30T01:28:32.780Z,150804.22
2022-11-30T01:31:06.117Z,150806.81
2022-11-30T01:33:36.696Z,150820.97
2022-11-30T01:36:08.966Z,150835.06
2022-11-30T01:38:43.489Z,150832.53
2022-11-30T01:41:16.283Z,150836.41
2022-11-30T01:43:48.731Z,150853.09
2022-11-30T01:46:30.538Z,150864.66
2022-11-30T01:49:07.989Z,150859.50
2022-11-30T01:51:42.175Z,150856.97
2022-11-30T01:54:18.368Z,150876.25
2022-11-30T01:56:53.330Z,150874.94
2022-11-30T01:59:25.229Z,150865.97
2022-11-30T02:01:57.633Z,150865.97
2022-11-30T02:04:32.642Z,150876.25
2022-11-30T02:07:04.304Z,150882.69
2022-11-30T02:09:43.467Z,150883.97
2022-11-30T02:12:19.905Z,150881.41
2022-11-30T02:14:54.657Z,150890.41
2022-11-30T02:17:32.063Z,150905.84
2022-11-30T02:20:44.440Z,150923.84
2022-11-30T02:23:45.960Z,150917.41
2022-11-30T02:26:36.712Z,150913.53
2022-11-30T02:29:19.671Z,150935.44
2022-11-30T02:31:54.372Z,150917.41
2022-11-30T02:34:28.142Z,150900.72
2022-11-30T02:36:59.582Z,150904.59
2022-11-30T02:39:29.851Z,150903.25
2022-11-30T02:41:59.911Z,150895.56
2022-11-30T02:44:33.018Z,150907.13
2022-11-30T02:47:16.215Z,150908.41
2022-11-30T02:49:52.985Z,150903.25
2022-11-30T02:52:26.929Z,150912.28
2022-11-30T02:54:57.220Z,150922.56
2022-11-30T02:57:31.128Z,150916.16
2022-11-30T03:00:04.992Z,150926.44
2022-11-30T03:02:35.510Z,150920.00
2022-11-30T03:05:05.812Z,150920.00
2022-11-30T03:07:35.990Z,150925.16
2022-11-30T03:10:06.884Z,150917.41
2022-11-30T03:12:36.913Z,150930.31
2022-11-30T03:15:10.704Z,150934.16
2022-11-30T03:17:40.814Z,150923.84
2022-11-30T03:20:12.857Z,150930.31
2022-11-30T03:22:43.049Z,150928.97
2022-11-30T03:25:13.498Z,150940.59
2022-11-30T03:27:43.711Z,150921.28
2022-11-30T03:30:17.388Z,150916.16
2022-11-30T03:32:47.566Z,150922.56
2022-11-30T03:35:17.776Z,150925.16
2022-11-30T03:37:48.340Z,150922.56
2022-11-30T03:40:18.927Z,150914.88
2022-11-30T03:42:49.003Z,150921.28
2022-11-30T03:45:24.009Z,150907.13
2022-11-30T03:47:56.979Z,150903.25
2022-11-30T03:50:27.010Z,150928.97
2022-11-30T03:52:57.041Z,150908.41
2022-11-30T03:55:27.283Z,150914.88
2022-11-30T03:57:57.388Z,150918.69
2022-11-30T04:00:35.105Z,150920.00
2022-11-30T04:03:05.299Z,150905.84
2022-11-30T04:05:35.495Z,150907.13
2022-11-30T04:08:05.601Z,150913.53
2022-11-30T04:10:35.654Z,150920.00
2022-11-30T04:13:05.716Z,150913.53
2022-11-30T04:15:38.902Z,150927.69
2022-11-30T04:18:09.146Z,150922.56
2022-11-30T04:20:40.774Z,150903.25
2022-11-30T04:23:12.305Z,150907.13
2022-11-30T04:25:43.419Z,150916.16
2022-11-30T04:28:13.577Z,150917.41
2022-11-30T04:30:48.445Z,150930.31
2022-11-30T04:33:20.249Z,150928.97
2022-11-30T04:35:53.350Z,150925.16
2022-11-30T04:38:23.766Z,150934.16
2022-11-30T04:40:55.103Z,150925.16
2022-11-30T04:43:25.390Z,150948.28
2022-11-30T04:45:58.805Z,150935.44
2022-11-30T04:48:29.265Z,150945.72
2022-11-30T04:51:06.034Z,150934.16
2022-11-30T04:53:36.599Z,150940.59
2022-11-30T04:56:10.225Z,150934.16
2022-11-30T04:58:42.005Z,150953.44
2022-11-30T05:01:15.499Z,150934.16
2022-11-30T05:03:45.653Z,150962.44
2022-11-30T05:06:15.745Z,150941.88
2022-11-30T05:08:45.786Z,150948.28
2022-11-30T05:11:16.223Z,150959.91
2022-11-30T05:13:46.676Z,150950.88
2022-11-30T05:16:19.475Z,150952.16
2022-11-30T05:18:49.699Z,150939.31
2022-11-30T05:21:19.750Z,150954.75
2022-11-30T05:23:50.192Z,150931.56
2022-11-30T05:26:20.374Z,150931.56
2022-11-30T05:28:50.423Z,150920.00
2022-11-30T05:31:23.251Z,150934.16
2022-11-30T05:33:54.296Z,150928.97
2022-11-30T05:36:24.468Z,150927.69
2022-11-30T05:38:55.179Z,150936.72
2022-11-30T05:41:25.421Z,150922.56
2022-11-30T05:43:55.838Z,150918.69
2022-11-30T05:46:29.523Z,150926.44
2022-11-30T05:48:59.685Z,150928.97
2022-11-30T05:51:29.832Z,150925.16
2022-11-30T05:54:01.324Z,150907.13
2022-11-30T05:56:31.428Z,150917.41
2022-11-30T05:59:01.597Z,150909.72
2022-11-30T06:01:34.294Z,150918.69
2022-11-30T06:04:09.190Z,150909.72
2022-11-30T06:06:39.988Z,150899.38
2022-11-30T06:09:10.092Z,150911.00
2022-11-30T06:11:40.322Z,150930.31
2022-11-30T06:14:10.610Z,150898.13
2022-11-30T06:16:44.607Z,150899.38
2022-11-30T06:19:14.703Z,150901.97
2022-11-30T06:21:44.996Z,150890.41
2022-11-30T06:24:15.766Z,150903.25
2022-11-30T06:26:46.100Z,150904.59
2022-11-30T06:29:16.759Z,150904.59
2022-11-30T06:31:49.811Z,150900.72
2022-11-30T06:34:20.249Z,150895.56
2022-11-30T06:36:50.395Z,150917.41
2022-11-30T06:39:36.587Z,150916.16
2022-11-30T06:42:10.616Z,150926.44
2022-11-30T06:44:40.907Z,150925.16
2022-11-30T06:47:13.887Z,150930.31
2022-11-30T06:49:44.101Z,150944.47
2022-11-30T06:52:14.315Z,150954.75
2022-11-30T06:54:44.556Z,150945.72
2022-11-30T06:57:15.064Z,150943.13
2022-11-30T06:59:46.741Z,150939.31
2022-11-30T07:02:19.588Z,150983.03
2022-11-30T07:04:49.902Z,150983.03
2022-11-30T07:07:20.396Z,150974.06
2022-11-30T07:09:50.631Z,150993.38
2022-11-30T07:12:21.274Z,151008.81
2022-11-30T07:14:53.051Z,151011.34
2022-11-30T07:17:26.155Z,151013.94
2022-11-30T07:19:56.172Z,151029.38
2022-11-30T07:22:26.342Z,151024.25
2022-11-30T07:25:08.685Z,151029.38
2022-11-30T07:27:38.724Z,151033.25
2022-11-30T07:30:13.404Z,151053.84
2022-11-30T07:32:46.183Z,151055.13
2022-11-30T07:35:16.208Z,151044.81
2022-11-30T07:37:46.586Z,151040.94
2022-11-30T07:40:17.272Z,151048.69
2022-11-30T07:42:47.547Z,151048.69
2022-11-30T07:45:18.540Z,151056.41
2022-11-30T07:47:51.673Z,151060.25
2022-11-30T07:50:21.962Z,151060.25
2022-11-30T07:52:52.168Z,151069.28
2022-11-30T07:55:24.070Z,151073.16
2022-11-30T07:57:54.601Z,151070.56
2022-11-30T08:00:24.770Z,151079.56
2022-11-30T08:02:57.716Z,151105.31
2022-11-30T08:05:27.935Z,151087.31
2022-11-30T08:07:58.053Z,151078.31
2022-11-30T08:10:28.492Z,151101.50
2022-11-30T08:12:59.395Z,151084.72
2022-11-30T08:15:33.043Z,151109.19
2022-11-30T08:18:10.688Z,151123.34
2022-11-30T08:20:43.332Z,151137.53
2022-11-30T08:23:17.198Z,151140.06
2022-11-30T08:25:47.264Z,151136.25
2022-11-30T08:28:18.625Z,151172.28
2022-11-30T08:30:52.029Z,151150.41
2022-11-30T08:33:24.871Z,151143.94
2022-11-30T08:35:55.513Z,151160.72
2022-11-30T08:38:25.669Z,151155.56
2022-11-30T08:41:00.650Z,151160.72
2022-11-30T08:43:31.001Z,151173.56
2022-11-30T08:46:02.154Z,151183.84
2022-11-30T08:48:35.240Z,151178.72
2022-11-30T08:51:09.102Z,151173.56
2022-11-30T08:53:39.101Z,151178.72
2022-11-30T08:56:11.512Z,151194.16
2022-11-30T08:58:43.761Z,151183.84
2022-11-30T09:01:16.327Z,151187.72
2022-11-30T09:03:51.045Z,151192.88
2022-11-30T09:06:23.510Z,151204.44
2022-11-30T09:08:55.755Z,151185.19
2022-11-30T09:11:27.627Z,151187.72
2022-11-30T09:14:00.906Z,151194.16
2022-11-30T09:16:31.873Z,151196.75
2022-11-30T09:19:05.673Z,151192.88
2022-11-30T09:21:36.435Z,151195.47
2022-11-30T09:24:06.894Z,151192.88
2022-11-30T09:26:36.977Z,151200.63
2022-11-30T09:29:07.940Z,151209.66
2022-11-30T09:31:38.034Z,151225.09
2022-11-30T09:34:14.927Z,151227.66
2022-11-30T09:36:44.934Z,151213.47
2022-11-30T09:39:15.940Z,151227.66
2022-11-30T09:42:05.432Z,151230.25
2022-11-30T09:44:43.890Z,151234.13
2022-11-30T09:47:34.117Z,151240.53
2022-11-30T09:50:16.166Z,151239.28
2022-11-30T09:52:51.268Z,151241.81
2022-11-30T09:55:30.425Z,151259.88
2022-11-30T09:58:04.899Z,151270.16
2022-11-30T10:00:37.164Z,151285.63
2022-11-30T10:03:10.252Z,151280.47
2022-11-30T10:05:50.840Z,151316.53
2022-11-30T10:08:33.215Z,151344.88
2022-11-30T10:11:21.665Z,151360.31
2022-11-30T10:14:04.602Z,151401.59
2022-11-30T10:16:42.955Z,151428.63
2022-11-30T10:19:27.291Z,151460.88
2022-11-30T10:22:13.993Z,151447.97
2022-11-30T10:24:59.872Z,151451.84
2022-11-30T10:27:47.231Z,151499.50
2022-11-30T10:30:22.593Z,151503.38
2022-11-30T10:33:01.260Z,151496.94
2022-11-30T10:35:44.667Z,151503.38
2022-11-30T10:38:24.571Z,151531.75
2022-11-30T10:40:58.072Z,151526.59
2022-11-30T10:43:33.055Z,151513.69
2022-11-30T10:46:03.744Z,151516.28
2022-11-30T10:48:40.793Z,151471.19
2022-11-30T10:51:12.561Z,151491.78
2022-11-30T10:53:45.491Z,151472.44
2022-11-30T10:56:17.600Z,151475.00
2022-11-30T10:58:56.769Z,151464.69
2022-11-30T11:01:36.191Z,151491.78
2022-11-30T11:04:18.981Z,151496.94
2022-11-30T11:06:52.811Z,151525.31
2022-11-30T11:09:33.509Z,151534.28
2022-11-30T11:12:06.022Z,151500.81
2022-11-30T11:14:38.288Z,151503.38
2022-11-30T11:17:12.669Z,151513.69
2022-11-30T11:19:44.664Z,151503.38
2022-11-30T11:22:20.777Z,151511.13
2022-11-30T11:24:55.084Z,151518.84
2022-11-30T11:27:31.737Z,151513.69
2022-11-30T11:30:05.709Z,151499.50
2022-11-30T11:32:36.190Z,151504.66
2022-11-30T11:35:07.559Z,151503.38
2022-11-30T11:37:41.678Z,151472.44
2022-11-30T11:40:22.635Z,151498.22
2022-11-30T11:42:55.479Z,151502.09
2022-11-30T11:45:29.478Z,151485.34
2022-11-30T11:48:06.182Z,151503.38
2022-11-30T11:51:05.558Z,151495.66
2022-11-30T11:53:51.586Z,151526.59
2022-11-30T11:56:32.057Z,151482.75
2022-11-30T11:59:06.951Z,151517.56
2022-11-30T12:01:53.768Z,151515.00
2022-11-30T12:04:47.288Z,151535.63
2022-11-30T12:07:31.335Z,151520.16
2022-11-30T12:10:43.656Z,151531.75
2022-11-30T12:13:15.253Z,151542.06
2022-11-30T12:16:02.844Z,151540.78
2022-11-30T12:18:41.375Z,151529.13
2022-11-30T12:21:17.067Z,151533.03
2022-11-30T12:24:05.870Z,151535.63
2022-11-30T12:26:42.396Z,151495.66
2022-11-30T12:29:24.555Z,151518.84
2022-11-30T12:32:16.388Z,151496.94
2022-11-30T12:35:07.436Z,151484.03
2022-11-30T12:37:51.825Z,151469.84
2022-11-30T12:40:36.076Z,151472.44
2022-11-30T12:43:19.818Z,151426.06
2022-11-30T12:46:00.898Z,151427.34
2022-11-30T12:48:43.521Z,151419.59
2022-11-30T12:51:29.347Z,151424.75
2022-11-30T12:54:09.732Z,151428.63
2022-11-30T12:56:46.170Z,151428.63
2022-11-30T12:59:31.444Z,151418.31
2022-11-30T13:02:21.609Z,151427.34
2022-11-30T13:04:58.864Z,151458.28
2022-11-30T13:07:33.095Z,151438.94
2022-11-30T13:10:06.406Z,151451.84
2022-11-30T13:12:40.189Z,151440.22
2022-11-30T13:15:21.087Z,151426.06
2022-11-30T13:17:55.232Z,151413.16
2022-11-30T13:20:32.073Z,151418.31
2022-11-30T13:23:08.833Z,151420.88
2022-11-30T13:26:07.580Z,151420.88
2022-11-30T13:28:51.653Z,151423.47
2022-11-30T13:31:27.602Z,151406.75
2022-11-30T13:34:03.994Z,151393.84
2022-11-30T13:36:39.342Z,151383.53
2022-11-30T13:39:34.486Z,151402.88
2022-11-30T13:42:36.642Z,151377.09
2022-11-30T13:45:37.063Z,151383.53
2022-11-30T13:48:33.993Z,151339.72
2022-11-30T13:51:07.203Z,151348.75
2022-11-30T13:53:39.210Z,151339.72
2022-11-30T13:56:38.221Z,151351.31
2022-11-30T13:59:36.771Z,151342.31
2022-11-30T14:05:40.828Z,151346.16
2022-11-30T14:08:37.683Z,151320.41
2022-11-30T14:11:43.334Z,151337.13
2022-11-30T14:14:47.432Z,151324.28
2022-11-30T14:17:22.383Z,151331.97
2022-11-30T14:19:55.368Z,151311.38
2022-11-30T14:22:26.656Z,151319.13
2022-11-30T14:24:58.517Z,151304.94
2022-11-30T14:27:32.837Z,151292.03
2022-11-30T14:30:07.388Z,151286.88
2022-11-30T14:32:42.930Z,151276.59
2022-11-30T14:35:16.720Z,151279.19
2022-11-30T14:37:49.802Z,151279.19
2022-11-30T14:40:22.902Z,151270.16
2022-11-30T14:42:57.528Z,151276.59
2022-11-30T14:45:33.709Z,151270.16
2022-11-30T14:48:14.600Z,151267.56
2022-11-30T14:50:47.151Z,151254.72
2022-11-30T14:53:36.214Z,151241.81
2022-11-30T14:56:16.707Z,151261.16
2022-11-30T14:58:57.552Z,151237.94
2022-11-30T15:01:29.972Z,151234.13
2022-11-30T15:04:07.653Z,151225.09
2022-11-30T15:06:37.966Z,151230.25
2022-11-30T15:09:16.551Z,151234.13
2022-11-30T15:11:48.319Z,151216.06
2022-11-30T15:14:22.228Z,151212.19
2022-11-30T15:16:53.394Z,151212.19
2022-11-30T15:19:26.298Z,151199.31
2022-11-30T15:21:58.613Z,151203.19
2022-11-30T15:24:30.261Z,151191.59
2022-11-30T15:27:10.426Z,151194.16
2022-11-30T15:29:48.222Z,151186.44
2022-11-30T15:32:21.950Z,151180.03
2022-11-30T15:34:56.807Z,151186.44
2022-11-30T15:37:33.470Z,151177.44
2022-11-30T15:40:06.461Z,151172.28
2022-11-30T15:42:40.381Z,151168.41
2022-11-30T15:45:19.345Z,151162.00
2022-11-30T15:47:49.816Z,151156.84
2022-11-30T15:50:50.396Z,151149.09
2022-11-30T15:53:37.200Z,151138.78
2022-11-30T15:56:10.402Z,151149.09
2022-11-30T15:58:45.888Z,151145.22
2022-11-30T16:01:24.353Z,151131.09
2022-11-30T16:04:06.014Z,151119.47
2022-11-30T16:06:39.611Z,151115.59
2022-11-30T16:09:21.758Z,151111.78
2022-11-30T16:11:57.245Z,151105.31
2022-11-30T16:14:27.677Z,151113.06
2022-11-30T16:17:05.483Z,151114.34
2022-11-30T16:19:38.892Z,151109.19
2022-11-30T16:22:09.252Z,151109.19
2022-11-30T16:24:39.775Z,151124.63
2022-11-30T16:27:22.790Z,151123.34
2022-11-30T16:29:53.366Z,151122.06
2022-11-30T16:32:26.159Z,151123.34
2022-11-30T16:34:56.326Z,151127.22
2022-11-30T16:37:26.697Z,151113.06
2022-11-30T16:39:56.778Z,151133.66
2022-11-30T16:42:26.814Z,151132.38
2022-11-30T16:44:58.613Z,151131.09
2022-11-30T16:47:31.356Z,151133.66
2022-11-30T16:50:01.413Z,151138.78
2022-11-30T16:52:31.508Z,151134.91
2022-11-30T16:55:01.830Z,151131.09
2022-11-30T16:57:31.853Z,151129.78
2022-11-30T17:00:01.980Z,151127.22
2022-11-30T17:02:35.788Z,151129.78
2022-11-30T17:05:05.581Z,151132.38
2022-11-30T17:07:38.107Z,151143.94
2022-11-30T17:10:09.990Z,151142.66
2022-11-30T17:12:40.423Z,151142.66
2022-11-30T17:15:17.896Z,151143.94
2022-11-30T17:17:50.735Z,151136.25
2022-11-30T17:20:22.912Z,151141.41
2022-11-30T17:22:53.043Z,151165.84
2022-11-30T17:25:26.795Z,151155.56
2022-11-30T17:28:00.459Z,151149.09
2022-11-30T17:30:34.533Z,151145.22
2022-11-30T17:33:07.851Z,151154.25
2022-11-30T17:35:42.967Z,151162.00
2022-11-30T17:38:13.160Z,151162.00
2022-11-30T17:40:45.292Z,151164.53
2022-11-30T17:43:15.568Z,151173.56
2022-11-30T17:45:45.813Z,151185.19
2022-11-30T17:48:19.504Z,151198.03
2022-11-30T17:50:53.754Z,151177.44
2022-11-30T17:53:24.011Z,151182.56
2022-11-30T17:55:54.524Z,151181.31
2022-11-30T17:58:24.805Z,151185.19
2022-11-30T18:00:56.120Z,151189.00
2022-11-30T18:03:30.773Z,151173.56
2022-11-30T18:06:03.237Z,151183.84
2022-11-30T18:08:38.187Z,151174.84
2022-11-30T18:11:12.111Z,151182.56
2022-11-30T18:13:43.227Z,151160.72
2022-11-30T18:16:18.442Z,151168.41
2022-11-30T18:18:51.602Z,151159.38
2022-11-30T18:21:26.582Z,151183.84
2022-11-30T18:23:57.077Z,151159.38
2022-11-30T18:26:29.082Z,151160.72
2022-11-30T18:29:00.858Z,151171.00
2022-11-30T18:31:33.329Z,151164.53
2022-11-30T18:34:08.038Z,151152.97
2022-11-30T18:36:38.313Z,151142.66
2022-11-30T18:39:08.656Z,151140.06
2022-11-30T18:41:39.092Z,151140.06
2022-11-30T18:44:10.678Z,151142.66
2022-11-30T18:46:43.914Z,151136.25
2022-11-30T18:49:16.664Z,151141.41
2022-11-30T18:51:46.817Z,151149.09
2022-11-30T18:54:17.144Z,151141.41
2022-11-30T18:56:47.423Z,151142.66
2022-11-30T18:59:18.336Z,151138.78
2022-11-30T19:01:48.614Z,151151.69
2022-11-30T19:04:22.696Z,151140.06
2022-11-30T19:06:52.948Z,151136.25
2022-11-30T19:09:26.659Z,151127.22
2022-11-30T19:11:58.210Z,151118.19
2022-11-30T19:14:28.437Z,151115.59
2022-11-30T19:17:00.623Z,151116.94
2022-11-30T19:19:34.108Z,151132.38
2022-11-30T19:22:04.163Z,151131.09
2022-11-30T19:24:36.215Z,151138.78
2022-11-30T19:27:06.510Z,151143.94
2022-11-30T19:29:37.140Z,151134.91
2022-11-30T19:32:08.271Z,151160.72
2022-11-30T19:34:41.372Z,151142.66
2022-11-30T19:37:11.583Z,151150.41
2022-11-30T19:39:41.644Z,151142.66
2022-11-30T19:42:11.851Z,151145.22
2022-11-30T19:44:41.982Z,151143.94
2022-11-30T19:47:18.925Z,151152.97
2022-11-30T19:49:52.512Z,151134.91
2022-11-30T19:52:23.211Z,151142.66
2022-11-30T19:54:53.416Z,151151.69
2022-11-30T19:57:23.656Z,151150.41
2022-11-30T19:59:53.904Z,151145.22
2022-11-30T20:02:26.384Z,151141.41
2022-11-30T20:04:59.090Z,151156.84
2022-11-30T20:07:29.258Z,151147.81
2022-11-30T20:09:59.445Z,151142.66
2022-11-30T20:12:30.011Z,151134.91
2022-11-30T20:15:00.125Z,151137.53
2022-11-30T20:17:30.136Z,151134.91
2022-11-30T20:20:03.943Z,151150.41
2022-11-30T20:22:33.957Z,151132.38
2022-11-30T20:25:04.006Z,151118.19
2022-11-30T20:27:34.184Z,151109.19
2022-11-30T20:30:04.562Z,151087.31
2022-11-30T20:32:36.199Z,151086.00
2022-11-30T20:35:10.971Z,151091.16
2022-11-30T20:37:41.175Z,151068.00
2022-11-30T20:40:13.116Z,151043.56
2022-11-30T20:42:43.197Z,151025.50
2022-11-30T20:45:16.003Z,151013.94
2022-11-30T20:47:46.272Z,151029.38
2022-11-30T20:50:19.100Z,151007.47
2022-11-30T20:52:49.197Z,150995.91
2022-11-30T20:55:19.508Z,150990.78
2022-11-30T20:57:50.152Z,150989.50
2022-11-30T21:00:20.886Z,150975.34
2022-11-30T21:02:52.481Z,150971.47
2022-11-30T21:05:25.418Z,150958.63
2022-11-30T21:07:55.792Z,150974.06
2022-11-30T21:10:26.033Z,150962.44
2022-11-30T21:12:56.023Z,150953.44
2022-11-30T21:15:28.540Z,150936.72
2022-11-30T21:17:58.675Z,150941.88
2022-11-30T21:20:31.568Z,150932.84
2022-11-30T21:23:01.689Z,150923.84
2022-11-30T21:25:31.728Z,150920.00
2022-11-30T21:28:01.861Z,150903.25
2022-11-30T21:30:33.801Z,150905.84
2022-11-30T21:33:04.664Z,150891.69
2022-11-30T21:35:37.678Z,150903.25
2022-11-30T21:38:07.861Z,150895.56
2022-11-30T21:40:38.116Z,150873.66
2022-11-30T21:43:08.118Z,150851.81
2022-11-30T21:45:41.543Z,150823.50
2022-11-30T21:48:11.627Z,150818.38
2022-11-30T21:50:44.658Z,150815.78
2022-11-30T21:53:14.766Z,150797.81
2022-11-30T21:55:45.011Z,150790.06
2022-11-30T21:58:15.043Z,150831.25
2022-11-30T22:00:45.624Z,150823.50
2022-11-30T22:03:19.353Z,150802.94
2022-11-30T22:06:02.150Z,150777.22
2022-11-30T22:08:32.890Z,150755.34
2022-11-30T22:11:04.581Z,150739.91
2022-11-30T22:13:35.275Z,150737.31
2022-11-30T22:16:07.120Z,150730.91
2022-11-30T22:18:38.532Z,150720.63
2022-11-30T22:21:13.410Z,150711.63
2022-11-30T22:23:45.485Z,150705.19
2022-11-30T22:26:18.983Z,150700.06
2022-11-30T22:28:50.538Z,150685.91
2022-11-30T22:31:22.783Z,150669.22
2022-11-30T22:33:52.954Z,150657.63
2022-11-30T22:36:27.446Z,150669.22
2022-11-30T22:38:58.799Z,150651.19
2022-11-30T22:41:30.212Z,150642.19
2022-11-30T22:44:00.983Z,150639.66
2022-11-30T22:46:32.952Z,150642.19
2022-11-30T22:49:06.283Z,150642.19
2022-11-30T22:51:40.712Z,150646.06
2022-11-30T22:54:12.122Z,150651.19
2022-11-30T22:56:44.344Z,150666.63
2022-11-30T22:59:15.714Z,150662.75
2022-11-30T23:01:47.290Z,150660.22
2022-11-30T23:04:19.349Z,150656.34
2022-11-30T23:06:52.836Z,150640.94
2022-11-30T23:09:25.104Z,150637.06
2022-11-30T23:11:55.334Z,150634.50
2022-11-30T23:14:25.384Z,150626.78
2022-11-30T23:16:55.438Z,150619.03
2022-11-30T23:19:25.608Z,150612.63
2022-11-30T23:21:58.239Z,150598.47
2022-11-30T23:24:28.337Z,150597.22
2022-11-30T23:26:58.420Z,150592.06
2022-11-30T23:29:28.581Z,150599.75
2022-11-30T23:31:58.813Z,150589.47
2022-11-30T23:34:28.906Z,150583.06
2022-11-30T23:37:01.543Z,150572.78
2022-11-30T23:39:31.572Z,150572.78
2022-11-30T23:42:02.848Z,150584.34
2022-11-30T23:44:32.900Z,150568.94
2022-11-30T23:47:03.981Z,150561.25
2022-11-30T23:49:34.098Z,150579.19
2022-11-30T23:52:07.384Z,150599.75
2022-11-30T23:54:37.424Z,150584.34
2022-11-30T23:57:07.733Z,150580.53
2022-11-30T23:59:37.734Z,150557.38
